createdAt,value
2022-10-05T00:00:19.246Z,1019.879075
2022-10-05T00:05:17.871Z,1019.807399
2022-10-05T00:10:18.154Z,1019.754619
2022-10-05T00:15:18.087Z,1019.730754
2022-10-05T00:20:17.822Z,1019.701471
2022-10-05T00:25:17.900Z,1019.661757
2022-10-05T00:30:18.157Z,1019.680291
2022-10-05T00:35:18.052Z,1019.736510
2022-10-05T00:40:17.834Z,1019.801802
2022-10-05T00:45:17.847Z,1019.749454
2022-10-05T00:50:17.915Z,1019.732948
2022-10-05T00:55:17.889Z,1019.731944
2022-10-05T01:00:18.388Z,1019.673060
2022-10-05T01:05:18.135Z,1019.677459
2022-10-05T01:10:18.474Z,1019.690120
2022-10-05T01:15:17.788Z,1019.606228
2022-10-05T01:20:17.987Z,1019.623820
2022-10-05T01:25:17.869Z,1019.590267
2022-10-05T01:30:17.887Z,1019.571688
2022-10-05T01:35:18.209Z,1019.514161
2022-10-05T01:40:17.874Z,1019.436223
2022-10-05T01:45:17.785Z,1019.479936
2022-10-05T01:50:17.870Z,1019.614237
2022-10-05T01:55:18.138Z,1019.674793
2022-10-05T02:00:18.494Z,1019.679935
2022-10-05T02:05:17.858Z,1019.606941
2022-10-05T02:10:17.903Z,1019.674389
2022-10-05T02:15:17.889Z,1019.730958
2022-10-05T02:20:18.070Z,1019.687233
2022-10-05T02:25:18.060Z,1019.606550
2022-10-05T02:30:17.799Z,1019.514928
2022-10-05T02:35:17.776Z,1019.525637
2022-10-05T02:40:17.804Z,1019.507607
2022-10-05T02:45:17.777Z,1019.415712
2022-10-05T02:50:18.024Z,1019.382449
2022-10-05T02:55:18.130Z,1019.362730
2022-10-05T03:00:18.432Z,1019.403270
2022-10-05T03:05:18.397Z,1019.399036
2022-10-05T03:10:18.224Z,1019.380238
2022-10-05T03:15:17.982Z,1019.438008
2022-10-05T03:20:17.934Z,1019.525847
2022-10-05T03:25:17.866Z,1019.603092
2022-10-05T03:30:17.963Z,1019.682791
2022-10-05T03:35:17.752Z,1019.793333
2022-10-05T03:40:17.901Z,1019.774408
2022-10-05T03:45:18.018Z,1019.649554
2022-10-05T03:50:17.877Z,1019.666219
2022-10-05T03:55:17.782Z,1019.652014
2022-10-05T04:00:17.976Z,1019.711787
2022-10-05T04:05:17.857Z,1019.772812
2022-10-05T04:10:18.054Z,1019.835454
2022-10-05T04:15:19.010Z,1019.749291
2022-10-05T04:20:18.445Z,1019.734073
2022-10-05T04:25:17.673Z,1019.792184
2022-10-05T04:30:17.848Z,1019.788973
2022-10-05T04:35:17.987Z,1019.826059
2022-10-05T04:40:17.876Z,1019.758740
2022-10-05T04:45:17.901Z,1019.724467
2022-10-05T04:50:18.084Z,1019.676677
2022-10-05T04:55:17.999Z,1019.698708
2022-10-05T05:00:18.247Z,1019.696626
2022-10-05T05:05:18.329Z,1019.702997
2022-10-05T05:10:18.187Z,1019.701830
2022-10-05T05:15:17.997Z,1019.725323
2022-10-05T05:20:17.770Z,1019.737777
2022-10-05T05:25:17.977Z,1019.738904
2022-10-05T05:30:17.915Z,1019.748814
2022-10-05T05:35:17.879Z,1019.838736
2022-10-05T05:40:17.999Z,1019.771331
2022-10-05T05:45:17.665Z,1019.798953
2022-10-05T05:50:18.028Z,1019.838501
2022-10-05T05:55:17.805Z,1019.813118
2022-10-05T06:00:17.883Z,1019.791286
2022-10-05T06:05:17.709Z,1019.805047
2022-10-05T06:10:18.185Z,1019.793473
2022-10-05T06:15:17.813Z,1019.625772
2022-10-05T06:20:17.726Z,1019.436725
2022-10-05T06:25:17.765Z,1019.392870
2022-10-05T06:30:18.113Z,1019.325413
2022-10-05T06:35:17.819Z,1019.204427
2022-10-05T06:40:17.767Z,1019.104680
2022-10-05T06:45:17.744Z,1019.016863
2022-10-05T06:50:17.743Z,1018.958214
2022-10-05T06:55:18.223Z,1018.974678
2022-10-05T07:00:18.132Z,1018.950098
2022-10-05T07:05:17.707Z,1018.849496
2022-10-05T07:10:17.872Z,1018.874817
2022-10-05T07:15:18.399Z,1018.792646
2022-10-05T07:20:17.938Z,1018.710485
2022-10-05T07:25:17.810Z,1018.658069
2022-10-05T07:30:17.779Z,1018.639858
2022-10-05T07:35:17.729Z,1018.657626
2022-10-05T07:40:17.688Z,1018.699109
2022-10-05T07:45:17.714Z,1018.757739
2022-10-05T07:50:18.092Z,1018.736249
2022-10-05T07:55:17.922Z,1018.776932
2022-10-05T08:00:17.930Z,1018.737423
2022-10-05T08:05:17.910Z,1018.678845
2022-10-05T08:10:17.761Z,1018.627940
2022-10-05T08:15:17.707Z,1018.553345
2022-10-05T08:20:17.818Z,1018.526278
2022-10-05T08:25:17.677Z,1018.493929
2022-10-05T08:30:17.785Z,1018.384013
2022-10-05T08:35:17.722Z,1018.329521
2022-10-05T08:40:18.200Z,1018.298270
2022-10-05T08:45:17.759Z,1018.305260
2022-10-05T08:50:17.700Z,1018.205856
2022-10-05T08:55:18.428Z,1018.199679
2022-10-05T09:00:17.973Z,1018.221288
2022-10-05T09:05:17.876Z,1018.187627
2022-10-05T09:10:17.656Z,1018.175497
2022-10-05T09:15:26.451Z,1018.211609
2022-10-05T09:20:17.767Z,1018.207045
2022-10-05T09:25:17.759Z,1018.169262
2022-10-05T09:30:18.027Z,1018.198689
2022-10-05T09:35:17.746Z,1018.101214
2022-10-05T09:40:17.837Z,1018.058374
2022-10-05T09:45:21.386Z,1018.005254
2022-10-05T09:50:17.958Z,1017.931121
2022-10-05T09:55:17.649Z,1017.814366
2022-10-05T10:00:17.920Z,1017.776261
2022-10-05T10:05:17.734Z,1017.745598
2022-10-05T10:10:17.982Z,1017.762121
2022-10-05T10:15:17.829Z,1017.758965
2022-10-05T10:20:17.765Z,1017.734456
2022-10-05T10:25:17.718Z,1017.630142
2022-10-05T10:30:18.052Z,1017.604322
2022-10-05T10:35:17.749Z,1017.611065
2022-10-05T10:40:18.016Z,1017.538827
2022-10-05T10:45:17.921Z,1017.538628
2022-10-05T10:50:17.834Z,1017.545163
2022-10-05T10:55:17.784Z,1017.515893
2022-10-05T11:00:17.778Z,1017.493522
2022-10-05T11:05:17.806Z,1017.526888
2022-10-05T11:10:17.706Z,1017.532301
2022-10-05T11:15:18.082Z,1017.528302
2022-10-05T11:20:18.567Z,1017.509908
2022-10-05T11:25:17.861Z,1017.470404
2022-10-05T11:30:17.712Z,1017.409310
2022-10-05T11:35:17.691Z,1017.354142
2022-10-05T11:40:17.798Z,1017.313677
2022-10-05T11:45:17.764Z,1017.186699
2022-10-05T11:50:17.839Z,1017.121107
2022-10-05T11:55:17.936Z,1017.085929
2022-10-05T12:00:18.019Z,1017.159505
2022-10-05T12:05:18.263Z,1017.118887
2022-10-05T12:10:17.806Z,1017.114032
2022-10-05T12:15:17.732Z,1017.049927
2022-10-05T12:20:17.617Z,1016.962946
2022-10-05T12:25:17.610Z,1016.929354
2022-10-05T12:30:17.825Z,1016.903447
2022-10-05T12:35:36.241Z,1016.904129
2022-10-05T12:40:17.888Z,1016.918070
2022-10-05T12:45:18.302Z,1016.881791
2022-10-05T12:50:18.120Z,1016.904696
2022-10-05T12:55:17.793Z,1016.846797
2022-10-05T13:00:22.638Z,1016.791588
2022-10-05T13:05:17.554Z,1016.734629
2022-10-05T13:10:17.634Z,1016.680222
2022-10-05T13:15:17.514Z,1016.658466
2022-10-05T13:20:17.741Z,1016.664052
2022-10-05T13:25:17.577Z,1016.638770
2022-10-05T13:30:17.944Z,1016.621357
2022-10-05T13:35:17.592Z,1016.558500
2022-10-05T13:40:17.594Z,1016.555454
2022-10-05T13:45:17.703Z,1016.520112
2022-10-05T13:50:17.626Z,1016.506374
2022-10-05T13:55:17.697Z,1016.547613
2022-10-05T14:00:21.373Z,1016.474355
2022-10-05T14:05:17.601Z,1016.451323
2022-10-05T14:10:17.571Z,1016.500780
2022-10-05T14:15:17.561Z,1016.562586
2022-10-05T14:20:17.586Z,1016.561522
2022-10-05T14:25:17.548Z,1016.504460
2022-10-05T14:30:17.860Z,1016.474534
2022-10-05T14:35:17.650Z,1016.455177
2022-10-05T14:40:17.600Z,1016.427666
2022-10-05T14:45:17.999Z,1016.424280
2022-10-05T14:50:17.736Z,1016.403615
2022-10-05T14:55:17.718Z,1016.336268
2022-10-05T15:00:18.060Z,1016.330401
2022-10-05T15:05:18.327Z,1016.351771
2022-10-05T15:10:17.626Z,1016.374534
2022-10-05T15:15:17.816Z,1016.336842
2022-10-05T15:20:17.731Z,1016.345145
2022-10-05T15:25:17.637Z,1016.289947
2022-10-05T15:30:17.649Z,1016.252060
2022-10-05T15:35:17.584Z,1016.247395
2022-10-05T15:40:17.648Z,1016.224341
2022-10-05T15:45:17.589Z,1016.235915
2022-10-05T15:50:17.827Z,1016.260005
2022-10-05T15:55:17.650Z,1016.216389
2022-10-05T16:00:17.986Z,1016.195225
2022-10-05T16:05:17.687Z,1016.207106
2022-10-05T16:10:17.687Z,1016.206210
2022-10-05T16:15:17.791Z,1016.252838
2022-10-05T16:20:17.582Z,1016.279841
2022-10-05T16:25:17.583Z,1016.319917
2022-10-05T16:30:17.567Z,1016.352800
2022-10-05T16:35:17.598Z,1016.391124
2022-10-05T16:40:17.676Z,1016.431599
2022-10-05T16:45:17.556Z,1016.399042
2022-10-05T16:50:18.196Z,1016.442243
2022-10-05T16:55:17.820Z,1016.481823
2022-10-05T17:00:18.208Z,1016.459798
2022-10-05T17:05:17.525Z,1016.475765
2022-10-05T17:10:18.257Z,1016.449726
2022-10-05T17:15:17.668Z,1016.405913
2022-10-05T17:20:17.574Z,1016.465884
2022-10-05T17:25:17.563Z,1016.460222
2022-10-05T17:30:17.732Z,1016.482210
2022-10-05T17:35:18.940Z,1016.492387
2022-10-05T17:40:17.840Z,1016.533702
2022-10-05T17:45:17.614Z,1016.504876
2022-10-05T17:50:17.761Z,1016.531293
2022-10-05T17:55:17.590Z,1016.504813
2022-10-05T18:00:18.464Z,1016.546060
2022-10-05T18:05:17.815Z,1016.555553
2022-10-05T18:10:17.647Z,1016.590777
2022-10-05T18:15:17.494Z,1016.586951
2022-10-05T18:20:17.647Z,1016.563369
2022-10-05T18:25:17.657Z,1016.547405
2022-10-05T18:30:17.583Z,1016.538401
2022-10-05T18:35:17.623Z,1016.539148
2022-10-05T18:40:17.666Z,1016.499766
2022-10-05T18:45:17.604Z,1016.490789
2022-10-05T18:50:17.736Z,1016.457767
2022-10-05T18:55:17.616Z,1016.471412
2022-10-05T19:00:17.813Z,1016.550989
2022-10-05T19:05:45.927Z,1016.594672
2022-10-05T19:10:17.936Z,1016.563881
2022-10-05T19:15:18.074Z,1016.603607
2022-10-05T19:20:18.157Z,1016.637770
2022-10-05T19:25:18.331Z,1016.686463
2022-10-05T19:30:17.806Z,1016.765320
2022-10-05T19:35:17.794Z,1016.865446
2022-10-05T19:40:17.623Z,1016.939493
2022-10-05T19:45:17.574Z,1017.009681
2022-10-05T19:50:17.485Z,1017.116351
2022-10-05T19:55:17.751Z,1017.154896
2022-10-05T20:00:17.710Z,1017.184344
2022-10-05T20:05:17.654Z,1017.221020
2022-10-05T20:10:23.651Z,1017.292158
2022-10-05T20:15:17.589Z,1017.313824
2022-10-05T20:20:17.707Z,1017.357577
2022-10-05T20:25:17.701Z,1017.402178
2022-10-05T20:30:17.772Z,1017.483557
2022-10-05T20:35:17.535Z,1017.580862
2022-10-05T20:40:17.856Z,1017.659770
2022-10-05T20:45:17.708Z,1017.750315
2022-10-05T20:50:18.084Z,1017.808486
2022-10-05T20:55:17.989Z,1017.883124
2022-10-05T21:00:17.578Z,1017.982891
2022-10-05T21:05:17.679Z,1018.075653
2022-10-05T21:10:17.731Z,1018.101008
2022-10-05T21:15:17.596Z,1018.044791
2022-10-05T21:20:17.626Z,1018.116776
2022-10-05T21:25:17.832Z,1018.186797
2022-10-05T21:30:17.675Z,1018.246970
2022-10-05T21:35:17.752Z,1018.340653
2022-10-05T21:40:17.545Z,1018.357809
2022-10-05T21:45:17.705Z,1018.381208
2022-10-05T21:50:17.562Z,1018.343893
2022-10-05T21:55:17.596Z,1018.392969
2022-10-05T22:00:17.682Z,1018.432822
2022-10-05T22:05:17.738Z,1018.496941
2022-10-05T22:10:17.741Z,1018.585462
2022-10-05T22:15:17.802Z,1018.618447
2022-10-05T22:20:17.715Z,1018.678852
2022-10-05T22:25:17.799Z,1018.784569
2022-10-05T22:30:17.801Z,1018.875260
2022-10-05T22:35:17.580Z,1018.927783
2022-10-05T22:40:17.497Z,1018.947578
2022-10-05T22:45:17.596Z,1018.940837
2022-10-05T22:50:17.999Z,1018.995776
2022-10-05T22:55:18.083Z,1019.019178
2022-10-05T23:00:18.107Z,1019.017644
2022-10-05T23:05:17.889Z,1019.033188
2022-10-05T23:10:17.917Z,1019.109587
2022-10-05T23:15:17.569Z,1019.119829
2022-10-05T23:25:17.488Z,1019.193918
2022-10-05T23:30:17.746Z,1019.192197
2022-10-05T23:35:17.494Z,1019.233525
2022-10-05T23:40:17.570Z,1019.227037
2022-10-05T23:45:17.749Z,1019.284098
2022-10-05T23:50:17.613Z,1019.315844
2022-10-05T23:55:17.669Z,1019.426448
